sensor_id;sensor_type;location;lat;lon;timestamp;P1;durP1;ratioP1;P2;durP2;ratioP2
9675;SDS011;4876;42.656;23.292;2022-07-31T00:02:08;15.77;;;12.00;;
9675;SDS011;4876;42.656;23.292;2022-07-31T00:04:35;12.40;;;11.10;;
9675;SDS011;4876;42.656;23.292;2022-07-31T00:07:02;12.73;;;10.40;;
9675;SDS011;4876;42.656;23.292;2022-07-31T00:09:28;11.60;;;10.40;;
9675;SDS011;4876;42.656;23.292;2022-07-31T00:11:57;11.30;;;10.20;;
9675;SDS011;4876;42.656;23.292;2022-07-31T00:14:23;14.90;;;10.33;;
9675;SDS011;4876;42.656;23.292;2022-07-31T00:16:50;10.97;;;9.87;;
9675;SDS011;4876;42.656;23.292;2022-07-31T00:19:17;10.70;;;9.60;;
9675;SDS011;4876;42.656;23.292;2022-07-31T00:21:44;11.50;;;10.20;;
9675;SDS011;4876;42.656;23.292;2022-07-31T00:24:10;14.73;;;10.93;;
9675;SDS011;4876;42.656;23.292;2022-07-31T00:26:38;13.37;;;11.23;;
9675;SDS011;4876;42.656;23.292;2022-07-31T00:29:07;12.20;;;11.00;;
9675;SDS011;4876;42.656;23.292;2022-07-31T00:31:35;13.13;;;10.47;;
9675;SDS011;4876;42.656;23.292;2022-07-31T00:34:01;13.17;;;10.37;;
9675;SDS011;4876;42.656;23.292;2022-07-31T00:36:28;10.40;;;9.30;;
9675;SDS011;4876;42.656;23.292;2022-07-31T00:38:55;11.23;;;9.53;;
9675;SDS011;4876;42.656;23.292;2022-07-31T00:41:22;10.57;;;9.43;;
9675;SDS011;4876;42.656;23.292;2022-07-31T00:43:48;12.33;;;9.83;;
9675;SDS011;4876;42.656;23.292;2022-07-31T00:46:17;9.77;;;8.70;;
9675;SDS011;4876;42.656;23.292;2022-07-31T00:48:43;12.23;;;10.33;;
9675;SDS011;4876;42.656;23.292;2022-07-31T00:51:10;11.57;;;10.37;;
9675;SDS011;4876;42.656;23.292;2022-07-31T00:53:37;13.53;;;10.17;;
9675;SDS011;4876;42.656;23.292;2022-07-31T00:56:04;12.63;;;10.70;;
9675;SDS011;4876;42.656;23.292;2022-07-31T00:58:31;11.97;;;10.63;;
9675;SDS011;4876;42.656;23.292;2022-07-31T01:00:57;10.67;;;9.23;;
9675;SDS011;4876;42.656;23.292;2022-07-31T01:03:26;11.40;;;10.20;;
9675;SDS011;4876;42.656;23.292;2022-07-31T01:05:52;11.13;;;9.67;;
9675;SDS011;4876;42.656;23.292;2022-07-31T01:08:19;13.73;;;8.83;;
9675;SDS011;4876;42.656;23.292;2022-07-31T01:10:48;11.33;;;9.13;;
9675;SDS011;4876;42.656;23.292;2022-07-31T01:13:23;11.30;;;8.63;;
9675;SDS011;4876;42.656;23.292;2022-07-31T01:15:56;9.50;;;8.33;;
9675;SDS011;4876;42.656;23.292;2022-07-31T01:18:26;12.27;;;9.87;;
9675;SDS011;4876;42.656;23.292;2022-07-31T01:20:57;10.63;;;8.97;;
9675;SDS011;4876;42.656;23.292;2022-07-31T01:26:40;11.67;;;9.90;;
9675;SDS011;4876;42.656;23.292;2022-07-31T01:29:15;13.63;;;9.33;;
9675;SDS011;4876;42.656;23.292;2022-07-31T01:31:48;12.43;;;9.60;;
9675;SDS011;4876;42.656;23.292;2022-07-31T01:34:24;11.80;;;8.40;;
9675;SDS011;4876;42.656;23.292;2022-07-31T01:36:57;10.33;;;8.77;;
9675;SDS011;4876;42.656;23.292;2022-07-31T01:39:28;11.03;;;8.30;;
9675;SDS011;4876;42.656;23.292;2022-07-31T01:41:57;9.70;;;8.73;;
9675;SDS011;4876;42.656;23.292;2022-07-31T01:44:29;12.13;;;8.20;;
9675;SDS011;4876;42.656;23.292;2022-07-31T01:46:59;12.60;;;8.83;;
9675;SDS011;4876;42.656;23.292;2022-07-31T01:49:27;10.30;;;9.30;;
9675;SDS011;4876;42.656;23.292;2022-07-31T01:51:56;10.50;;;9.27;;
9675;SDS011;4876;42.656;23.292;2022-07-31T01:54:24;9.33;;;8.37;;
9675;SDS011;4876;42.656;23.292;2022-07-31T01:56:53;11.40;;;8.23;;
9675;SDS011;4876;42.656;23.292;2022-07-31T01:59:23;9.17;;;8.27;;
9675;SDS011;4876;42.656;23.292;2022-07-31T02:01:53;10.93;;;8.13;;
9675;SDS011;4876;42.656;23.292;2022-07-31T02:04:22;8.30;;;7.23;;
9675;SDS011;4876;42.656;23.292;2022-07-31T02:06:50;8.63;;;7.73;;
9675;SDS011;4876;42.656;23.292;2022-07-31T02:09:18;9.70;;;8.20;;
9675;SDS011;4876;42.656;23.292;2022-07-31T02:11:46;13.10;;;8.00;;
9675;SDS011;4876;42.656;23.292;2022-07-31T02:14:15;9.90;;;8.17;;
9675;SDS011;4876;42.656;23.292;2022-07-31T02:16:46;10.00;;;8.50;;
9675;SDS011;4876;42.656;23.292;2022-07-31T02:19:15;12.70;;;7.87;;
9675;SDS011;4876;42.656;23.292;2022-07-31T02:21:42;8.47;;;7.23;;
9675;SDS011;4876;42.656;23.292;2022-07-31T02:24:09;10.23;;;6.90;;
9675;SDS011;4876;42.656;23.292;2022-07-31T02:26:36;7.67;;;6.57;;
9675;SDS011;4876;42.656;23.292;2022-07-31T02:29:06;10.27;;;7.30;;
9675;SDS011;4876;42.656;23.292;2022-07-31T02:31:37;7.70;;;6.60;;
9675;SDS011;4876;42.656;23.292;2022-07-31T02:34:04;9.17;;;6.63;;
9675;SDS011;4876;42.656;23.292;2022-07-31T02:36:33;9.07;;;6.53;;
9675;SDS011;4876;42.656;23.292;2022-07-31T02:39:01;9.70;;;7.13;;
9675;SDS011;4876;42.656;23.292;2022-07-31T02:41:29;13.00;;;7.83;;
9675;SDS011;4876;42.656;23.292;2022-07-31T02:43:56;7.80;;;7.00;;
9675;SDS011;4876;42.656;23.292;2022-07-31T02:46:23;9.37;;;7.20;;
9675;SDS011;4876;42.656;23.292;2022-07-31T02:48:52;7.80;;;7.00;;
9675;SDS011;4876;42.656;23.292;2022-07-31T02:51:20;8.27;;;7.47;;
9675;SDS011;4876;42.656;23.292;2022-07-31T02:53:48;10.67;;;7.80;;
9675;SDS011;4876;42.656;23.292;2022-07-31T02:56:15;11.43;;;7.97;;
9675;SDS011;4876;42.656;23.292;2022-07-31T02:58:43;12.17;;;7.53;;
9675;SDS011;4876;42.656;23.292;2022-07-31T03:01:10;12.97;;;8.47;;
9675;SDS011;4876;42.656;23.292;2022-07-31T03:03:38;11.50;;;8.37;;
9675;SDS011;4876;42.656;23.292;2022-07-31T03:06:05;11.60;;;8.67;;
9675;SDS011;4876;42.656;23.292;2022-07-31T03:08:32;10.13;;;9.13;;
9675;SDS011;4876;42.656;23.292;2022-07-31T03:11:00;11.13;;;9.97;;
9675;SDS011;4876;42.656;23.292;2022-07-31T03:13:27;12.33;;;9.93;;
9675;SDS011;4876;42.656;23.292;2022-07-31T03:15:55;12.47;;;11.10;;
9675;SDS011;4876;42.656;23.292;2022-07-31T03:18:23;12.00;;;10.77;;
9675;SDS011;4876;42.656;23.292;2022-07-31T03:20:51;12.70;;;10.93;;
9675;SDS011;4876;42.656;23.292;2022-07-31T03:23:20;14.23;;;10.90;;
9675;SDS011;4876;42.656;23.292;2022-07-31T03:25:48;12.77;;;11.20;;
9675;SDS011;4876;42.656;23.292;2022-07-31T03:28:17;15.03;;;11.67;;
9675;SDS011;4876;42.656;23.292;2022-07-31T03:30:44;14.17;;;12.33;;
9675;SDS011;4876;42.656;23.292;2022-07-31T03:33:12;16.03;;;12.70;;
9675;SDS011;4876;42.656;23.292;2022-07-31T03:35:38;13.13;;;11.70;;
9675;SDS011;4876;42.656;23.292;2022-07-31T03:38:05;14.70;;;12.50;;
9675;SDS011;4876;42.656;23.292;2022-07-31T03:40:32;14.13;;;12.53;;
9675;SDS011;4876;42.656;23.292;2022-07-31T03:42:59;15.20;;;13.60;;
9675;SDS011;4876;42.656;23.292;2022-07-31T03:45:29;14.50;;;13.03;;
9675;SDS011;4876;42.656;23.292;2022-07-31T03:47:57;19.53;;;12.77;;
9675;SDS011;4876;42.656;23.292;2022-07-31T03:50:24;18.33;;;14.87;;
9675;SDS011;4876;42.656;23.292;2022-07-31T03:52:52;15.77;;;13.20;;
9675;SDS011;4876;42.656;23.292;2022-07-31T03:55:20;16.20;;;14.30;;
9675;SDS011;4876;42.656;23.292;2022-07-31T03:57:47;20.37;;;11.83;;
9675;SDS011;4876;42.656;23.292;2022-07-31T04:00:15;12.37;;;9.97;;
9675;SDS011;4876;42.656;23.292;2022-07-31T04:02:43;9.40;;;8.50;;
9675;SDS011;4876;42.656;23.292;2022-07-31T04:05:10;10.20;;;9.30;;
9675;SDS011;4876;42.656;23.292;2022-07-31T04:07:37;12.10;;;9.00;;
9675;SDS011;4876;42.656;23.292;2022-07-31T04:10:04;12.80;;;9.30;;
9675;SDS011;4876;42.656;23.292;2022-07-31T04:12:32;13.03;;;9.83;;
9675;SDS011;4876;42.656;23.292;2022-07-31T04:14:58;11.17;;;9.97;;
9675;SDS011;4876;42.656;23.292;2022-07-31T04:17:25;11.30;;;10.03;;
9675;SDS011;4876;42.656;23.292;2022-07-31T04:19:53;13.93;;;10.23;;
9675;SDS011;4876;42.656;23.292;2022-07-31T04:22:20;14.17;;;9.83;;
9675;SDS011;4876;42.656;23.292;2022-07-31T04:24:47;11.07;;;9.97;;
9675;SDS011;4876;42.656;23.292;2022-07-31T04:27:14;14.80;;;9.33;;
9675;SDS011;4876;42.656;23.292;2022-07-31T04:29:42;12.00;;;9.63;;
9675;SDS011;4876;42.656;23.292;2022-07-31T04:32:09;11.13;;;9.93;;
9675;SDS011;4876;42.656;23.292;2022-07-31T04:34:36;10.90;;;8.67;;
9675;SDS011;4876;42.656;23.292;2022-07-31T04:37:04;10.93;;;8.93;;
9675;SDS011;4876;42.656;23.292;2022-07-31T04:39:31;11.10;;;8.87;;
9675;SDS011;4876;42.656;23.292;2022-07-31T04:41:58;8.43;;;7.60;;
9675;SDS011;4876;42.656;23.292;2022-07-31T04:44:25;7.83;;;7.07;;
9675;SDS011;4876;42.656;23.292;2022-07-31T04:46:51;8.03;;;6.80;;
9675;SDS011;4876;42.656;23.292;2022-07-31T04:49:18;7.50;;;6.77;;
9675;SDS011;4876;42.656;23.292;2022-07-31T04:51:45;8.90;;;7.00;;
9675;SDS011;4876;42.656;23.292;2022-07-31T04:54:13;8.20;;;7.37;;
9675;SDS011;4876;42.656;23.292;2022-07-31T04:56:40;8.43;;;6.53;;
9675;SDS011;4876;42.656;23.292;2022-07-31T04:59:13;8.10;;;6.87;;
9675;SDS011;4876;42.656;23.292;2022-07-31T05:01:42;9.20;;;6.67;;
9675;SDS011;4876;42.656;23.292;2022-07-31T05:04:09;7.57;;;6.70;;
9675;SDS011;4876;42.656;23.292;2022-07-31T05:06:37;6.83;;;6.23;;
9675;SDS011;4876;42.656;23.292;2022-07-31T05:09:05;8.00;;;7.17;;
9675;SDS011;4876;42.656;23.292;2022-07-31T05:11:35;8.17;;;7.33;;
9675;SDS011;4876;42.656;23.292;2022-07-31T05:14:03;7.40;;;6.43;;
9675;SDS011;4876;42.656;23.292;2022-07-31T05:16:31;6.43;;;5.83;;
9675;SDS011;4876;42.656;23.292;2022-07-31T05:18:59;7.37;;;6.57;;
9675;SDS011;4876;42.656;23.292;2022-07-31T05:21:26;6.97;;;6.27;;
9675;SDS011;4876;42.656;23.292;2022-07-31T05:23:55;9.87;;;6.43;;
9675;SDS011;4876;42.656;23.292;2022-07-31T05:26:22;7.20;;;6.27;;
9675;SDS011;4876;42.656;23.292;2022-07-31T05:28:51;6.33;;;5.73;;
9675;SDS011;4876;42.656;23.292;2022-07-31T05:31:19;6.17;;;5.57;;
9675;SDS011;4876;42.656;23.292;2022-07-31T05:33:46;6.80;;;6.20;;
9675;SDS011;4876;42.656;23.292;2022-07-31T05:36:14;6.97;;;6.30;;
9675;SDS011;4876;42.656;23.292;2022-07-31T05:38:42;7.23;;;6.53;;
9675;SDS011;4876;42.656;23.292;2022-07-31T05:41:09;7.67;;;6.87;;
9675;SDS011;4876;42.656;23.292;2022-07-31T05:43:36;9.93;;;7.23;;
9675;SDS011;4876;42.656;23.292;2022-07-31T05:46:05;9.43;;;7.43;;
9675;SDS011;4876;42.656;23.292;2022-07-31T05:48:32;8.00;;;7.20;;
9675;SDS011;4876;42.656;23.292;2022-07-31T05:50:59;8.07;;;7.27;;
9675;SDS011;4876;42.656;23.292;2022-07-31T05:53:26;8.37;;;7.57;;
9675;SDS011;4876;42.656;23.292;2022-07-31T05:55:52;12.03;;;7.50;;
9675;SDS011;4876;42.656;23.292;2022-07-31T05:58:19;7.90;;;7.10;;
9675;SDS011;4876;42.656;23.292;2022-07-31T06:00:46;9.27;;;7.10;;
9675;SDS011;4876;42.656;23.292;2022-07-31T06:03:15;9.57;;;7.53;;
9675;SDS011;4876;42.656;23.292;2022-07-31T06:05:48;10.00;;;8.00;;
9675;SDS011;4876;42.656;23.292;2022-07-31T06:08:15;13.43;;;8.50;;
9675;SDS011;4876;42.656;23.292;2022-07-31T06:10:42;9.33;;;7.87;;
9675;SDS011;4876;42.656;23.292;2022-07-31T06:13:09;9.47;;;8.00;;
9675;SDS011;4876;42.656;23.292;2022-07-31T06:15:35;9.20;;;8.30;;
9675;SDS011;4876;42.656;23.292;2022-07-31T06:18:02;11.93;;;7.80;;
9675;SDS011;4876;42.656;23.292;2022-07-31T06:20:31;9.77;;;7.80;;
9675;SDS011;4876;42.656;23.292;2022-07-31T06:22:58;10.60;;;8.83;;
9675;SDS011;4876;42.656;23.292;2022-07-31T06:25:25;10.30;;;8.73;;
9675;SDS011;4876;42.656;23.292;2022-07-31T06:27:52;11.03;;;9.13;;
9675;SDS011;4876;42.656;23.292;2022-07-31T06:30:19;12.13;;;9.30;;
9675;SDS011;4876;42.656;23.292;2022-07-31T06:32:46;12.10;;;9.33;;
9675;SDS011;4876;42.656;23.292;2022-07-31T06:35:12;12.47;;;9.20;;
9675;SDS011;4876;42.656;23.292;2022-07-31T06:37:41;12.70;;;9.50;;
9675;SDS011;4876;42.656;23.292;2022-07-31T06:40:08;11.17;;;9.13;;
9675;SDS011;4876;42.656;23.292;2022-07-31T06:42:36;10.20;;;8.80;;
9675;SDS011;4876;42.656;23.292;2022-07-31T06:45:03;10.03;;;9.00;;
9675;SDS011;4876;42.656;23.292;2022-07-31T06:47:30;13.02;;;9.60;;
9675;SDS011;4876;42.656;23.292;2022-07-31T06:49:57;12.70;;;10.53;;
9675;SDS011;4876;42.656;23.292;2022-07-31T06:52:23;12.20;;;9.80;;
9675;SDS011;4876;42.656;23.292;2022-07-31T06:54:52;12.97;;;10.13;;
9675;SDS011;4876;42.656;23.292;2022-07-31T06:57:18;11.97;;;10.13;;
9675;SDS011;4876;42.656;23.292;2022-07-31T06:59:45;12.53;;;10.33;;
9675;SDS011;4876;42.656;23.292;2022-07-31T07:02:12;14.03;;;10.63;;
9675;SDS011;4876;42.656;23.292;2022-07-31T07:04:39;20.70;;;10.87;;
9675;SDS011;4876;42.656;23.292;2022-07-31T07:07:06;12.20;;;10.57;;
9675;SDS011;4876;42.656;23.292;2022-07-31T07:09:32;12.03;;;10.37;;
9675;SDS011;4876;42.656;23.292;2022-07-31T07:12:01;17.03;;;10.73;;
9675;SDS011;4876;42.656;23.292;2022-07-31T07:14:27;11.63;;;10.00;;
9675;SDS011;4876;42.656;23.292;2022-07-31T07:16:54;11.50;;;10.30;;
9675;SDS011;4876;42.656;23.292;2022-07-31T07:19:21;16.40;;;10.70;;
9675;SDS011;4876;42.656;23.292;2022-07-31T07:21:48;10.80;;;9.53;;
9675;SDS011;4876;42.656;23.292;2022-07-31T07:24:14;11.53;;;9.77;;
9675;SDS011;4876;42.656;23.292;2022-07-31T07:26:41;12.93;;;10.63;;
9675;SDS011;4876;42.656;23.292;2022-07-31T07:29:09;12.10;;;10.32;;
9675;SDS011;4876;42.656;23.292;2022-07-31T07:31:36;12.18;;;10.00;;
9675;SDS011;4876;42.656;23.292;2022-07-31T07:34:03;13.55;;;10.82;;
9675;SDS011;4876;42.656;23.292;2022-07-31T07:36:33;11.55;;;10.27;;
9675;SDS011;4876;42.656;23.292;2022-07-31T07:38:59;12.38;;;10.15;;
9675;SDS011;4876;42.656;23.292;2022-07-31T07:41:26;15.82;;;11.05;;
9675;SDS011;4876;42.656;23.292;2022-07-31T07:43:53;13.15;;;10.80;;
9675;SDS011;4876;42.656;23.292;2022-07-31T07:46:22;11.60;;;8.93;;
9675;SDS011;4876;42.656;23.292;2022-07-31T07:48:49;10.90;;;8.70;;
9675;SDS011;4876;42.656;23.292;2022-07-31T07:51:16;13.00;;;9.10;;
9675;SDS011;4876;42.656;23.292;2022-07-31T07:53:43;10.17;;;8.93;;
9675;SDS011;4876;42.656;23.292;2022-07-31T07:56:10;10.00;;;7.70;;
9675;SDS011;4876;42.656;23.292;2022-07-31T07:58:37;9.20;;;7.63;;
9675;SDS011;4876;42.656;23.292;2022-07-31T08:01:04;8.77;;;7.33;;
9675;SDS011;4876;42.656;23.292;2022-07-31T08:03:33;9.17;;;7.40;;
9675;SDS011;4876;42.656;23.292;2022-07-31T08:05:59;9.40;;;7.57;;
9675;SDS011;4876;42.656;23.292;2022-07-31T08:08:26;9.40;;;7.47;;
9675;SDS011;4876;42.656;23.292;2022-07-31T08:10:53;7.80;;;7.00;;
9675;SDS011;4876;42.656;23.292;2022-07-31T08:13:20;8.07;;;6.60;;
9675;SDS011;4876;42.656;23.292;2022-07-31T08:15:47;8.37;;;7.40;;
9675;SDS011;4876;42.656;23.292;2022-07-31T08:18:13;9.67;;;7.50;;
9675;SDS011;4876;42.656;23.292;2022-07-31T08:20:43;8.80;;;7.57;;
9675;SDS011;4876;42.656;23.292;2022-07-31T08:23:10;10.33;;;7.40;;
9675;SDS011;4876;42.656;23.292;2022-07-31T08:25:36;9.50;;;7.23;;
9675;SDS011;4876;42.656;23.292;2022-07-31T08:28:03;10.80;;;7.63;;
9675;SDS011;4876;42.656;23.292;2022-07-31T08:30:30;8.90;;;6.40;;
9675;SDS011;4876;42.656;23.292;2022-07-31T08:32:57;9.30;;;7.47;;
9675;SDS011;4876;42.656;23.292;2022-07-31T08:35:24;9.40;;;7.27;;
9675;SDS011;4876;42.656;23.292;2022-07-31T08:37:52;8.77;;;7.37;;
9675;SDS011;4876;42.656;23.292;2022-07-31T08:40:19;8.03;;;6.70;;
9675;SDS011;4876;42.656;23.292;2022-07-31T08:42:46;9.37;;;7.27;;
9675;SDS011;4876;42.656;23.292;2022-07-31T08:45:13;10.57;;;7.57;;
9675;SDS011;4876;42.656;23.292;2022-07-31T08:47:40;11.37;;;8.67;;
9675;SDS011;4876;42.656;23.292;2022-07-31T08:50:13;8.13;;;7.23;;
9675;SDS011;4876;42.656;23.292;2022-07-31T08:52:41;8.13;;;6.60;;
9675;SDS011;4876;42.656;23.292;2022-07-31T08:55:11;7.90;;;6.90;;
9675;SDS011;4876;42.656;23.292;2022-07-31T08:57:39;10.43;;;7.73;;
9675;SDS011;4876;42.656;23.292;2022-07-31T09:00:06;7.93;;;7.13;;
9675;SDS011;4876;42.656;23.292;2022-07-31T09:02:37;10.80;;;8.17;;
9675;SDS011;4876;42.656;23.292;2022-07-31T09:05:05;9.43;;;8.43;;
9675;SDS011;4876;42.656;23.292;2022-07-31T09:07:32;9.17;;;8.20;;
9675;SDS011;4876;42.656;23.292;2022-07-31T09:09:59;10.37;;;8.50;;
9675;SDS011;4876;42.656;23.292;2022-07-31T09:12:28;11.30;;;9.23;;
9675;SDS011;4876;42.656;23.292;2022-07-31T09:14:56;10.70;;;9.10;;
9675;SDS011;4876;42.656;23.292;2022-07-31T09:17:31;11.65;;;10.13;;
9675;SDS011;4876;42.656;23.292;2022-07-31T09:20:00;12.07;;;10.20;;
9675;SDS011;4876;42.656;23.292;2022-07-31T09:22:27;12.60;;;10.10;;
9675;SDS011;4876;42.656;23.292;2022-07-31T09:25:08;10.75;;;9.65;;
9675;SDS011;4876;42.656;23.292;2022-07-31T09:27:38;12.93;;;10.25;;
9675;SDS011;4876;42.656;23.292;2022-07-31T09:30:06;12.05;;;10.20;;
9675;SDS011;4876;42.656;23.292;2022-07-31T09:32:34;12.93;;;10.60;;
9675;SDS011;4876;42.656;23.292;2022-07-31T09:35:11;11.45;;;10.25;;
9675;SDS011;4876;42.656;23.292;2022-07-31T09:37:39;16.25;;;11.32;;
9675;SDS011;4876;42.656;23.292;2022-07-31T09:40:07;11.52;;;10.32;;
9675;SDS011;4876;42.656;23.292;2022-07-31T09:42:35;14.00;;;10.32;;
9675;SDS011;4876;42.656;23.292;2022-07-31T09:45:14;12.93;;;10.50;;
9675;SDS011;4876;42.656;23.292;2022-07-31T09:47:43;11.35;;;10.02;;
9675;SDS011;4876;42.656;23.292;2022-07-31T09:50:10;12.90;;;10.60;;
9675;SDS011;4876;42.656;23.292;2022-07-31T09:52:37;13.05;;;10.57;;
9675;SDS011;4876;42.656;23.292;2022-07-31T09:55:04;12.70;;;9.70;;
9675;SDS011;4876;42.656;23.292;2022-07-31T09:57:32;10.73;;;9.35;;
9675;SDS011;4876;42.656;23.292;2022-07-31T10:00:02;10.35;;;9.32;;
9675;SDS011;4876;42.656;23.292;2022-07-31T10:02:32;10.65;;;9.57;;
9675;SDS011;4876;42.656;23.292;2022-07-31T10:05:01;10.05;;;9.07;;
9675;SDS011;4876;42.656;23.292;2022-07-31T10:07:28;10.90;;;9.80;;
9675;SDS011;4876;42.656;23.292;2022-07-31T10:10:00;11.50;;;10.23;;
9675;SDS011;4876;42.656;23.292;2022-07-31T10:12:28;14.23;;;9.48;;
9675;SDS011;4876;42.656;23.292;2022-07-31T10:14:58;11.10;;;9.80;;
9675;SDS011;4876;42.656;23.292;2022-07-31T10:17:32;11.73;;;10.52;;
9675;SDS011;4876;42.656;23.292;2022-07-31T10:20:04;12.48;;;10.63;;
9675;SDS011;4876;42.656;23.292;2022-07-31T10:22:34;11.65;;;10.45;;
9675;SDS011;4876;42.656;23.292;2022-07-31T10:25:05;11.40;;;10.23;;
9675;SDS011;4876;42.656;23.292;2022-07-31T10:27:37;12.70;;;10.90;;
9675;SDS011;4876;42.656;23.292;2022-07-31T10:30:05;13.50;;;11.65;;
9675;SDS011;4876;42.656;23.292;2022-07-31T10:32:34;13.90;;;11.30;;
9675;SDS011;4876;42.656;23.292;2022-07-31T10:35:02;14.82;;;10.63;;
9675;SDS011;4876;42.656;23.292;2022-07-31T10:37:29;12.02;;;10.82;;
9675;SDS011;4876;42.656;23.292;2022-07-31T10:40:02;10.73;;;9.63;;
9675;SDS011;4876;42.656;23.292;2022-07-31T10:42:36;12.00;;;10.63;;
9675;SDS011;4876;42.656;23.292;2022-07-31T10:45:10;10.05;;;8.95;;
9675;SDS011;4876;42.656;23.292;2022-07-31T10:47:39;10.38;;;8.95;;
9675;SDS011;4876;42.656;23.292;2022-07-31T10:50:06;8.95;;;8.05;;
9675;SDS011;4876;42.656;23.292;2022-07-31T10:52:44;10.88;;;8.90;;
9675;SDS011;4876;42.656;23.292;2022-07-31T10:55:14;9.48;;;8.50;;
9675;SDS011;4876;42.656;23.292;2022-07-31T10:57:43;9.95;;;9.02;;
9675;SDS011;4876;42.656;23.292;2022-07-31T11:00:10;12.23;;;9.25;;
9675;SDS011;4876;42.656;23.292;2022-07-31T11:02:40;9.55;;;8.60;;
9675;SDS011;4876;42.656;23.292;2022-07-31T11:05:08;9.75;;;8.75;;
9675;SDS011;4876;42.656;23.292;2022-07-31T11:07:37;9.68;;;8.45;;
9675;SDS011;4876;42.656;23.292;2022-07-31T11:10:08;9.25;;;8.20;;
9675;SDS011;4876;42.656;23.292;2022-07-31T11:12:36;8.90;;;8.00;;
9675;SDS011;4876;42.656;23.292;2022-07-31T11:15:03;9.48;;;8.60;;
9675;SDS011;4876;42.656;23.292;2022-07-31T11:17:43;9.98;;;9.02;;
9675;SDS011;4876;42.656;23.292;2022-07-31T11:20:16;9.85;;;8.52;;
9675;SDS011;4876;42.656;23.292;2022-07-31T11:22:50;10.18;;;8.93;;
9675;SDS011;4876;42.656;23.292;2022-07-31T11:25:21;10.25;;;8.68;;
9675;SDS011;4876;42.656;23.292;2022-07-31T11:27:49;9.40;;;8.48;;
9675;SDS011;4876;42.656;23.292;2022-07-31T11:30:16;11.18;;;8.88;;
9675;SDS011;4876;42.656;23.292;2022-07-31T11:32:47;10.23;;;9.23;;
9675;SDS011;4876;42.656;23.292;2022-07-31T11:35:25;11.05;;;9.35;;
9675;SDS011;4876;42.656;23.292;2022-07-31T11:37:53;10.60;;;9.30;;
9675;SDS011;4876;42.656;23.292;2022-07-31T11:40:21;9.90;;;8.80;;
9675;SDS011;4876;42.656;23.292;2022-07-31T11:42:47;11.75;;;8.77;;
9675;SDS011;4876;42.656;23.292;2022-07-31T11:45:14;10.15;;;9.15;;
9675;SDS011;4876;42.656;23.292;2022-07-31T11:47:43;10.40;;;9.40;;
9675;SDS011;4876;42.656;23.292;2022-07-31T11:50:12;10.57;;;9.48;;
9675;SDS011;4876;42.656;23.292;2022-07-31T11:52:40;13.57;;;9.88;;
9675;SDS011;4876;42.656;23.292;2022-07-31T11:55:09;9.63;;;8.63;;
9675;SDS011;4876;42.656;23.292;2022-07-31T11:57:37;10.43;;;9.30;;
9675;SDS011;4876;42.656;23.292;2022-07-31T12:00:06;12.73;;;9.38;;
9675;SDS011;4876;42.656;23.292;2022-07-31T12:02:33;9.38;;;8.30;;
9675;SDS011;4876;42.656;23.292;2022-07-31T12:05:01;10.38;;;9.38;;
9675;SDS011;4876;42.656;23.292;2022-07-31T12:07:30;8.93;;;8.13;;
9675;SDS011;4876;42.656;23.292;2022-07-31T12:09:57;10.40;;;8.95;;
9675;SDS011;4876;42.656;23.292;2022-07-31T12:12:24;10.43;;;8.85;;
9675;SDS011;4876;42.656;23.292;2022-07-31T12:14:51;8.95;;;8.15;;
9675;SDS011;4876;42.656;23.292;2022-07-31T12:17:18;9.48;;;8.63;;
9675;SDS011;4876;42.656;23.292;2022-07-31T12:19:46;9.27;;;8.32;;
9675;SDS011;4876;42.656;23.292;2022-07-31T12:22:13;9.38;;;7.78;;
9675;SDS011;4876;42.656;23.292;2022-07-31T12:24:43;10.00;;;8.75;;
9675;SDS011;4876;42.656;23.292;2022-07-31T12:27:12;8.77;;;7.88;;
9675;SDS011;4876;42.656;23.292;2022-07-31T12:29:40;9.20;;;8.35;;
9675;SDS011;4876;42.656;23.292;2022-07-31T12:32:07;9.13;;;8.23;;
9675;SDS011;4876;42.656;23.292;2022-07-31T12:34:35;8.93;;;8.13;;
9675;SDS011;4876;42.656;23.292;2022-07-31T12:37:03;8.85;;;7.95;;
9675;SDS011;4876;42.656;23.292;2022-07-31T12:39:33;8.75;;;7.95;;
9675;SDS011;4876;42.656;23.292;2022-07-31T12:42:03;10.13;;;9.18;;
9675;SDS011;4876;42.656;23.292;2022-07-31T12:44:30;8.00;;;7.20;;
9675;SDS011;4876;42.656;23.292;2022-07-31T12:46:57;8.73;;;7.93;;
9675;SDS011;4876;42.656;23.292;2022-07-31T12:49:23;7.80;;;7.10;;
9675;SDS011;4876;42.656;23.292;2022-07-31T12:51:50;8.98;;;8.13;;
9675;SDS011;4876;42.656;23.292;2022-07-31T12:54:17;13.73;;;7.82;;
9675;SDS011;4876;42.656;23.292;2022-07-31T12:56:44;8.20;;;7.43;;
9675;SDS011;4876;42.656;23.292;2022-07-31T12:59:13;8.48;;;7.70;;
9675;SDS011;4876;42.656;23.292;2022-07-31T13:01:39;7.97;;;7.18;;
9675;SDS011;4876;42.656;23.292;2022-07-31T13:04:06;8.55;;;7.75;;
9675;SDS011;4876;42.656;23.292;2022-07-31T13:06:33;7.53;;;6.90;;
9675;SDS011;4876;42.656;23.292;2022-07-31T13:09:01;7.30;;;6.57;;
9675;SDS011;4876;42.656;23.292;2022-07-31T13:11:28;8.32;;;7.35;;
9675;SDS011;4876;42.656;23.292;2022-07-31T13:13:57;7.05;;;6.35;;
9675;SDS011;4876;42.656;23.292;2022-07-31T13:16:26;8.68;;;6.38;;
9675;SDS011;4876;42.656;23.292;2022-07-31T13:18:53;8.38;;;6.90;;
9675;SDS011;4876;42.656;23.292;2022-07-31T13:21:20;17.45;;;7.50;;
9675;SDS011;4876;42.656;23.292;2022-07-31T13:23:46;9.35;;;7.22;;
9675;SDS011;4876;42.656;23.292;2022-07-31T13:26:13;8.10;;;7.32;;
9675;SDS011;4876;42.656;23.292;2022-07-31T13:28:40;8.02;;;7.30;;
9675;SDS011;4876;42.656;23.292;2022-07-31T13:31:07;8.23;;;7.47;;
9675;SDS011;4876;42.656;23.292;2022-07-31T13:33:35;8.85;;;6.63;;
9675;SDS011;4876;42.656;23.292;2022-07-31T13:36:02;8.07;;;7.03;;
9675;SDS011;4876;42.656;23.292;2022-07-31T13:38:29;7.20;;;6.50;;
9675;SDS011;4876;42.656;23.292;2022-07-31T13:40:56;8.77;;;6.80;;
9675;SDS011;4876;42.656;23.292;2022-07-31T13:43:41;10.95;;;7.13;;
9675;SDS011;4876;42.656;23.292;2022-07-31T13:46:08;8.63;;;7.72;;
9675;SDS011;4876;42.656;23.292;2022-07-31T13:48:36;7.78;;;7.07;;
9675;SDS011;4876;42.656;23.292;2022-07-31T13:51:02;8.05;;;7.35;;
9675;SDS011;4876;42.656;23.292;2022-07-31T13:53:30;9.25;;;7.95;;
9675;SDS011;4876;42.656;23.292;2022-07-31T13:55:57;9.77;;;7.78;;
9675;SDS011;4876;42.656;23.292;2022-07-31T13:58:24;13.63;;;7.65;;
9675;SDS011;4876;42.656;23.292;2022-07-31T14:00:52;8.15;;;7.45;;
9675;SDS011;4876;42.656;23.292;2022-07-31T14:03:19;7.85;;;7.15;;
9675;SDS011;4876;42.656;23.292;2022-07-31T14:05:47;8.93;;;6.90;;
9675;SDS011;4876;42.656;23.292;2022-07-31T14:08:14;8.73;;;7.88;;
9675;SDS011;4876;42.656;23.292;2022-07-31T14:10:41;7.97;;;7.20;;
9675;SDS011;4876;42.656;23.292;2022-07-31T14:13:08;7.38;;;6.68;;
9675;SDS011;4876;42.656;23.292;2022-07-31T14:15:35;7.13;;;6.53;;
9675;SDS011;4876;42.656;23.292;2022-07-31T14:18:01;7.28;;;6.68;;
9675;SDS011;4876;42.656;23.292;2022-07-31T14:20:28;7.20;;;6.50;;
9675;SDS011;4876;42.656;23.292;2022-07-31T14:22:58;7.03;;;6.32;;
9675;SDS011;4876;42.656;23.292;2022-07-31T14:25:26;7.20;;;6.60;;
9675;SDS011;4876;42.656;23.292;2022-07-31T14:27:53;7.00;;;6.40;;
9675;SDS011;4876;42.656;23.292;2022-07-31T14:30:20;6.65;;;6.05;;
9675;SDS011;4876;42.656;23.292;2022-07-31T14:32:47;7.03;;;6.30;;
9675;SDS011;4876;42.656;23.292;2022-07-31T14:35:14;6.53;;;5.88;;
9675;SDS011;4876;42.656;23.292;2022-07-31T14:37:41;6.85;;;5.80;;
9675;SDS011;4876;42.656;23.292;2022-07-31T14:40:09;6.03;;;5.53;;
9675;SDS011;4876;42.656;23.292;2022-07-31T14:42:37;7.43;;;6.72;;
9675;SDS011;4876;42.656;23.292;2022-07-31T14:45:04;6.95;;;5.93;;
9675;SDS011;4876;42.656;23.292;2022-07-31T14:47:33;8.25;;;7.45;;
9675;SDS011;4876;42.656;23.292;2022-07-31T14:50:00;7.45;;;6.85;;
9675;SDS011;4876;42.656;23.292;2022-07-31T14:52:27;9.32;;;6.97;;
9675;SDS011;4876;42.656;23.292;2022-07-31T14:54:54;7.15;;;6.45;;
9675;SDS011;4876;42.656;23.292;2022-07-31T14:57:23;6.75;;;6.18;;
9675;SDS011;4876;42.656;23.292;2022-07-31T14:59:50;7.80;;;6.80;;